sensor_id;sensor_type;location;lat;lon;timestamp;P1;durP1;ratioP1;P2;durP2;ratioP2
48002;SDS011;33768;48.578;11.574;2023-06-19T00:01:36;7.17;;;5.70;;
48002;SDS011;33768;48.578;11.574;2023-06-19T00:04:41;9.17;;;5.37;;
48002;SDS011;33768;48.578;11.574;2023-06-19T00:07:45;9.77;;;5.10;;
48002;SDS011;33768;48.578;11.574;2023-06-19T00:10:49;5.63;;;5.03;;
48002;SDS011;33768;48.578;11.574;2023-06-19T00:13:53;7.07;;;5.70;;
48002;SDS011;33768;48.578;11.574;2023-06-19T00:16:58;5.60;;;4.90;;
48002;SDS011;33768;48.578;11.574;2023-06-19T00:20:04;7.50;;;5.60;;
48002;SDS011;33768;48.578;11.574;2023-06-19T00:23:09;6.70;;;5.67;;
48002;SDS011;33768;48.578;11.574;2023-06-19T00:26:17;9.00;;;5.60;;
48002;SDS011;33768;48.578;11.574;2023-06-19T00:29:21;7.07;;;4.97;;
48002;SDS011;33768;48.578;11.574;2023-06-19T00:32:25;6.70;;;5.60;;
48002;SDS011;33768;48.578;11.574;2023-06-19T00:35:29;7.13;;;5.60;;
48002;SDS011;33768;48.578;11.574;2023-06-19T00:38:33;8.30;;;5.70;;
48002;SDS011;33768;48.578;11.574;2023-06-19T00:41:37;6.50;;;5.13;;
48002;SDS011;33768;48.578;11.574;2023-06-19T00:44:43;6.20;;;5.60;;
48002;SDS011;33768;48.578;11.574;2023-06-19T00:47:47;6.63;;;5.67;;
48002;SDS011;33768;48.578;11.574;2023-06-19T00:50:51;7.03;;;6.20;;
48002;SDS011;33768;48.578;11.574;2023-06-19T00:53:56;9.10;;;6.03;;
48002;SDS011;33768;48.578;11.574;2023-06-19T00:57:00;7.23;;;5.53;;
48002;SDS011;33768;48.578;11.574;2023-06-19T01:00:05;7.10;;;5.40;;
48002;SDS011;33768;48.578;11.574;2023-06-19T01:03:11;6.53;;;5.83;;
48002;SDS011;33768;48.578;11.574;2023-06-19T01:06:17;7.73;;;5.53;;
48002;SDS011;33768;48.578;11.574;2023-06-19T01:09:28;6.30;;;5.57;;
48002;SDS011;33768;48.578;11.574;2023-06-19T01:12:38;6.80;;;6.10;;
48002;SDS011;33768;48.578;11.574;2023-06-19T01:15:48;8.63;;;6.37;;
48002;SDS011;33768;48.578;11.574;2023-06-19T01:18:53;7.27;;;5.40;;
48002;SDS011;33768;48.578;11.574;2023-06-19T01:22:01;7.07;;;5.77;;
48002;SDS011;33768;48.578;11.574;2023-06-19T01:25:06;7.17;;;6.30;;
48002;SDS011;33768;48.578;11.574;2023-06-19T01:28:14;5.90;;;5.30;;
48002;SDS011;33768;48.578;11.574;2023-06-19T01:31:21;6.70;;;5.80;;
48002;SDS011;33768;48.578;11.574;2023-06-19T01:34:30;9.07;;;5.23;;
48002;SDS011;33768;48.578;11.574;2023-06-19T01:37:34;7.03;;;5.57;;
48002;SDS011;33768;48.578;11.574;2023-06-19T01:40:42;7.07;;;5.63;;
48002;SDS011;33768;48.578;11.574;2023-06-19T01:43:47;7.57;;;6.47;;
48002;SDS011;33768;48.578;11.574;2023-06-19T01:46:52;7.43;;;5.80;;
48002;SDS011;33768;48.578;11.574;2023-06-19T01:49:57;8.60;;;6.03;;
48002;SDS011;33768;48.578;11.574;2023-06-19T01:53:01;6.00;;;5.40;;
48002;SDS011;33768;48.578;11.574;2023-06-19T01:56:05;7.03;;;5.90;;
48002;SDS011;33768;48.578;11.574;2023-06-19T01:59:09;7.27;;;5.60;;
48002;SDS011;33768;48.578;11.574;2023-06-19T02:02:14;8.50;;;5.93;;
48002;SDS011;33768;48.578;11.574;2023-06-19T02:05:18;7.83;;;6.13;;
48002;SDS011;33768;48.578;11.574;2023-06-19T02:08:22;6.90;;;5.80;;
48002;SDS011;33768;48.578;11.574;2023-06-19T02:11:26;7.37;;;6.10;;
48002;SDS011;33768;48.578;11.574;2023-06-19T02:14:31;8.53;;;5.43;;
48002;SDS011;33768;48.578;11.574;2023-06-19T02:17:36;7.93;;;6.13;;
48002;SDS011;33768;48.578;11.574;2023-06-19T02:20:41;7.00;;;6.30;;
48002;SDS011;33768;48.578;11.574;2023-06-19T02:23:45;6.43;;;5.70;;
48002;SDS011;33768;48.578;11.574;2023-06-19T02:26:50;5.97;;;5.17;;
48002;SDS011;33768;48.578;11.574;2023-06-19T02:29:54;8.57;;;5.67;;
48002;SDS011;33768;48.578;11.574;2023-06-19T02:32:58;7.93;;;5.80;;
48002;SDS011;33768;48.578;11.574;2023-06-19T02:36:03;6.50;;;5.73;;
48002;SDS011;33768;48.578;11.574;2023-06-19T02:39:08;6.17;;;5.60;;
48002;SDS011;33768;48.578;11.574;2023-06-19T02:42:13;7.17;;;6.27;;
48002;SDS011;33768;48.578;11.574;2023-06-19T02:45:16;8.23;;;6.57;;
48002;SDS011;33768;48.578;11.574;2023-06-19T02:48:21;6.43;;;5.83;;
48002;SDS011;33768;48.578;11.574;2023-06-19T02:51:26;7.97;;;6.00;;
48002;SDS011;33768;48.578;11.574;2023-06-19T02:54:31;6.37;;;5.73;;
48002;SDS011;33768;48.578;11.574;2023-06-19T02:57:36;8.53;;;6.10;;
48002;SDS011;33768;48.578;11.574;2023-06-19T03:00:41;8.70;;;6.03;;
48002;SDS011;33768;48.578;11.574;2023-06-19T03:03:45;7.90;;;5.90;;
48002;SDS011;33768;48.578;11.574;2023-06-19T03:06:50;6.70;;;6.00;;
48002;SDS011;33768;48.578;11.574;2023-06-19T03:09:54;13.77;;;7.03;;
48002;SDS011;33768;48.578;11.574;2023-06-19T03:12:59;9.83;;;6.53;;
48002;SDS011;33768;48.578;11.574;2023-06-19T03:16:04;7.53;;;6.13;;
48002;SDS011;33768;48.578;11.574;2023-06-19T03:19:08;7.00;;;5.93;;
48002;SDS011;33768;48.578;11.574;2023-06-19T03:22:13;7.63;;;6.47;;
48002;SDS011;33768;48.578;11.574;2023-06-19T03:25:17;11.10;;;6.73;;
48002;SDS011;33768;48.578;11.574;2023-06-19T03:28:23;11.90;;;7.07;;
48002;SDS011;33768;48.578;11.574;2023-06-19T03:31:28;8.10;;;6.43;;
48002;SDS011;33768;48.578;11.574;2023-06-19T03:34:32;8.93;;;6.37;;
48002;SDS011;33768;48.578;11.574;2023-06-19T03:37:38;7.70;;;6.70;;
48002;SDS011;33768;48.578;11.574;2023-06-19T03:40:42;8.00;;;6.43;;
48002;SDS011;33768;48.578;11.574;2023-06-19T03:43:48;8.67;;;7.03;;
48002;SDS011;33768;48.578;11.574;2023-06-19T03:46:53;8.53;;;6.47;;
48002;SDS011;33768;48.578;11.574;2023-06-19T03:49:57;7.77;;;5.90;;
48002;SDS011;33768;48.578;11.574;2023-06-19T03:53:02;9.77;;;6.80;;
48002;SDS011;33768;48.578;11.574;2023-06-19T03:56:06;7.60;;;6.87;;
48002;SDS011;33768;48.578;11.574;2023-06-19T03:59:10;10.50;;;6.83;;
48002;SDS011;33768;48.578;11.574;2023-06-19T04:02:15;8.63;;;7.10;;
48002;SDS011;33768;48.578;11.574;2023-06-19T04:05:21;9.37;;;7.43;;
48002;SDS011;33768;48.578;11.574;2023-06-19T04:08:25;9.97;;;7.40;;
48002;SDS011;33768;48.578;11.574;2023-06-19T04:11:29;12.60;;;7.20;;
48002;SDS011;33768;48.578;11.574;2023-06-19T04:14:33;7.03;;;6.33;;
48002;SDS011;33768;48.578;11.574;2023-06-19T04:17:37;10.73;;;7.33;;
48002;SDS011;33768;48.578;11.574;2023-06-19T04:20:41;8.13;;;6.40;;
48002;SDS011;33768;48.578;11.574;2023-06-19T04:23:45;8.37;;;7.57;;
48002;SDS011;33768;48.578;11.574;2023-06-19T04:26:49;9.50;;;7.13;;
48002;SDS011;33768;48.578;11.574;2023-06-19T04:29:53;10.27;;;7.30;;
48002;SDS011;33768;48.578;11.574;2023-06-19T04:32:57;8.87;;;6.93;;
48002;SDS011;33768;48.578;11.574;2023-06-19T04:36:02;8.70;;;7.80;;
48002;SDS011;33768;48.578;11.574;2023-06-19T04:39:06;10.23;;;7.53;;
48002;SDS011;33768;48.578;11.574;2023-06-19T04:42:10;8.27;;;6.90;;
48002;SDS011;33768;48.578;11.574;2023-06-19T04:45:16;9.13;;;7.23;;
48002;SDS011;33768;48.578;11.574;2023-06-19T04:48:20;9.20;;;7.10;;
48002;SDS011;33768;48.578;11.574;2023-06-19T04:51:28;8.87;;;7.00;;
48002;SDS011;33768;48.578;11.574;2023-06-19T04:54:33;7.63;;;6.93;;
48002;SDS011;33768;48.578;11.574;2023-06-19T04:57:37;8.50;;;7.40;;
48002;SDS011;33768;48.578;11.574;2023-06-19T05:00:41;18.00;;;7.57;;
48002;SDS011;33768;48.578;11.574;2023-06-19T05:03:45;12.20;;;7.57;;
48002;SDS011;33768;48.578;11.574;2023-06-19T05:06:49;10.37;;;7.23;;
48002;SDS011;33768;48.578;11.574;2023-06-19T05:09:54;9.83;;;7.70;;
48002;SDS011;33768;48.578;11.574;2023-06-19T05:12:58;7.87;;;7.07;;
48002;SDS011;33768;48.578;11.574;2023-06-19T05:16:02;8.80;;;7.90;;
48002;SDS011;33768;48.578;11.574;2023-06-19T05:19:06;10.57;;;8.30;;
48002;SDS011;33768;48.578;11.574;2023-06-19T05:22:10;9.40;;;7.67;;
48002;SDS011;33768;48.578;11.574;2023-06-19T05:25:14;7.77;;;6.90;;
48002;SDS011;33768;48.578;11.574;2023-06-19T05:28:18;8.40;;;7.60;;
48002;SDS011;33768;48.578;11.574;2023-06-19T05:31:22;8.47;;;7.10;;
48002;SDS011;33768;48.578;11.574;2023-06-19T05:34:26;9.83;;;8.00;;
48002;SDS011;33768;48.578;11.574;2023-06-19T05:37:31;9.43;;;8.37;;
48002;SDS011;33768;48.578;11.574;2023-06-19T05:40:35;9.70;;;7.93;;
48002;SDS011;33768;48.578;11.574;2023-06-19T05:43:39;9.57;;;8.07;;
48002;SDS011;33768;48.578;11.574;2023-06-19T05:46:43;8.67;;;7.60;;
48002;SDS011;33768;48.578;11.574;2023-06-19T05:49:47;9.17;;;7.33;;
48002;SDS011;33768;48.578;11.574;2023-06-19T05:52:52;12.57;;;7.37;;
48002;SDS011;33768;48.578;11.574;2023-06-19T05:55:56;11.43;;;7.60;;
48002;SDS011;33768;48.578;11.574;2023-06-19T05:59:01;8.90;;;8.00;;
48002;SDS011;33768;48.578;11.574;2023-06-19T06:02:06;11.30;;;8.27;;
48002;SDS011;33768;48.578;11.574;2023-06-19T06:05:10;12.60;;;8.40;;
48002;SDS011;33768;48.578;11.574;2023-06-19T06:08:14;10.27;;;8.20;;
48002;SDS011;33768;48.578;11.574;2023-06-19T06:11:18;8.43;;;7.63;;
48002;SDS011;33768;48.578;11.574;2023-06-19T06:14:23;12.80;;;8.80;;
48002;SDS011;33768;48.578;11.574;2023-06-19T06:17:27;12.50;;;9.03;;
48002;SDS011;33768;48.578;11.574;2023-06-19T06:20:31;10.53;;;8.00;;
48002;SDS011;33768;48.578;11.574;2023-06-19T06:23:35;10.73;;;8.23;;
48002;SDS011;33768;48.578;11.574;2023-06-19T06:26:39;12.10;;;9.10;;
48002;SDS011;33768;48.578;11.574;2023-06-19T06:29:43;10.33;;;7.97;;
48002;SDS011;33768;48.578;11.574;2023-06-19T06:32:48;10.03;;;8.33;;
48002;SDS011;33768;48.578;11.574;2023-06-19T06:35:54;9.40;;;7.93;;
48002;SDS011;33768;48.578;11.574;2023-06-19T06:38:58;10.53;;;9.13;;
48002;SDS011;33768;48.578;11.574;2023-06-19T06:42:03;10.23;;;8.67;;
48002;SDS011;33768;48.578;11.574;2023-06-19T06:45:07;10.87;;;9.00;;
48002;SDS011;33768;48.578;11.574;2023-06-19T06:48:12;11.30;;;10.00;;
48002;SDS011;33768;48.578;11.574;2023-06-19T06:51:16;10.13;;;9.00;;
48002;SDS011;33768;48.578;11.574;2023-06-19T06:54:20;10.00;;;8.67;;
48002;SDS011;33768;48.578;11.574;2023-06-19T06:57:24;10.03;;;9.03;;
48002;SDS011;33768;48.578;11.574;2023-06-19T07:00:28;9.77;;;8.00;;
48002;SDS011;33768;48.578;11.574;2023-06-19T07:03:33;9.90;;;8.90;;
48002;SDS011;33768;48.578;11.574;2023-06-19T07:06:37;12.37;;;8.97;;
48002;SDS011;33768;48.578;11.574;2023-06-19T07:09:41;12.60;;;8.07;;
48002;SDS011;33768;48.578;11.574;2023-06-19T07:12:46;10.10;;;8.87;;
48002;SDS011;33768;48.578;11.574;2023-06-19T07:15:53;13.47;;;8.80;;
48002;SDS011;33768;48.578;11.574;2023-06-19T07:18:57;12.82;;;9.20;;
48002;SDS011;33768;48.578;11.574;2023-06-19T07:22:01;11.48;;;8.30;;
48002;SDS011;33768;48.578;11.574;2023-06-19T07:25:06;11.00;;;7.80;;
48002;SDS011;33768;48.578;11.574;2023-06-19T07:28:10;9.60;;;8.55;;
48002;SDS011;33768;48.578;11.574;2023-06-19T07:31:15;14.65;;;9.70;;
48002;SDS011;33768;48.578;11.574;2023-06-19T07:34:19;9.27;;;7.90;;
48002;SDS011;33768;48.578;11.574;2023-06-19T07:37:23;10.15;;;8.15;;
48002;SDS011;33768;48.578;11.574;2023-06-19T07:40:27;10.63;;;8.27;;
48002;SDS011;33768;48.578;11.574;2023-06-19T07:43:31;9.32;;;8.20;;
48002;SDS011;33768;48.578;11.574;2023-06-19T07:46:35;9.23;;;8.23;;
48002;SDS011;33768;48.578;11.574;2023-06-19T07:49:40;8.77;;;7.63;;
48002;SDS011;33768;48.578;11.574;2023-06-19T07:52:44;9.98;;;7.93;;
48002;SDS011;33768;48.578;11.574;2023-06-19T07:55:48;10.70;;;7.75;;
48002;SDS011;33768;48.578;11.574;2023-06-19T07:58:53;15.05;;;9.00;;
48002;SDS011;33768;48.578;11.574;2023-06-19T08:01:57;14.45;;;8.77;;
48002;SDS011;33768;48.578;11.574;2023-06-19T08:05:01;8.20;;;7.40;;
48002;SDS011;33768;48.578;11.574;2023-06-19T08:08:05;9.90;;;8.75;;
48002;SDS011;33768;48.578;11.574;2023-06-19T08:11:09;11.95;;;8.15;;
48002;SDS011;33768;48.578;11.574;2023-06-19T08:14:13;12.05;;;8.05;;
48002;SDS011;33768;48.578;11.574;2023-06-19T08:17:17;11.82;;;8.25;;
48002;SDS011;33768;48.578;11.574;2023-06-19T08:20:21;9.98;;;8.02;;
48002;SDS011;33768;48.578;11.574;2023-06-19T08:23:26;9.52;;;7.88;;
48002;SDS011;33768;48.578;11.574;2023-06-19T08:26:30;16.10;;;7.63;;
48002;SDS011;33768;48.578;11.574;2023-06-19T08:29:34;8.27;;;7.38;;
48002;SDS011;33768;48.578;11.574;2023-06-19T08:32:37;11.30;;;8.55;;
48002;SDS011;33768;48.578;11.574;2023-06-19T08:35:42;10.02;;;8.35;;
48002;SDS011;33768;48.578;11.574;2023-06-19T08:38:46;8.63;;;7.75;;
48002;SDS011;33768;48.578;11.574;2023-06-19T08:41:53;8.55;;;7.70;;
48002;SDS011;33768;48.578;11.574;2023-06-19T08:44:57;9.77;;;7.97;;
48002;SDS011;33768;48.578;11.574;2023-06-19T08:48:01;28.98;;;9.13;;
48002;SDS011;33768;48.578;11.574;2023-06-19T08:51:16;9.50;;;8.15;;
48002;SDS011;33768;48.578;11.574;2023-06-19T08:54:20;13.52;;;9.10;;
48002;SDS011;33768;48.578;11.574;2023-06-19T08:57:34;13.82;;;8.55;;
48002;SDS011;33768;48.578;11.574;2023-06-19T09:00:40;12.90;;;8.73;;
48002;SDS011;33768;48.578;11.574;2023-06-19T09:03:51;9.45;;;8.23;;
48002;SDS011;33768;48.578;11.574;2023-06-19T09:06:56;8.80;;;7.90;;
48002;SDS011;33768;48.578;11.574;2023-06-19T09:10:10;9.52;;;8.18;;
48002;SDS011;33768;48.578;11.574;2023-06-19T09:13:18;8.85;;;7.65;;
48002;SDS011;33768;48.578;11.574;2023-06-19T09:16:22;10.85;;;7.93;;
48002;SDS011;33768;48.578;11.574;2023-06-19T09:19:28;10.73;;;8.27;;
48002;SDS011;33768;48.578;11.574;2023-06-19T09:22:32;9.40;;;8.43;;
48002;SDS011;33768;48.578;11.574;2023-06-19T09:25:46;9.25;;;8.32;;
48002;SDS011;33768;48.578;11.574;2023-06-19T09:28:51;8.40;;;7.60;;
48002;SDS011;33768;48.578;11.574;2023-06-19T09:31:55;9.05;;;7.72;;
48002;SDS011;33768;48.578;11.574;2023-06-19T09:35:00;8.27;;;7.47;;
48002;SDS011;33768;48.578;11.574;2023-06-19T09:38:04;9.27;;;7.55;;
48002;SDS011;33768;48.578;11.574;2023-06-19T09:41:08;14.63;;;8.18;;
48002;SDS011;33768;48.578;11.574;2023-06-19T09:44:13;8.73;;;7.88;;
48002;SDS011;33768;48.578;11.574;2023-06-19T09:47:20;9.63;;;7.22;;
48002;SDS011;33768;48.578;11.574;2023-06-19T09:50:27;7.82;;;7.00;;
48002;SDS011;33768;48.578;11.574;2023-06-19T09:53:32;9.15;;;7.13;;
48002;SDS011;33768;48.578;11.574;2023-06-19T09:56:38;7.72;;;6.00;;
48002;SDS011;33768;48.578;11.574;2023-06-19T09:59:42;7.65;;;5.93;;
48002;SDS011;33768;48.578;11.574;2023-06-19T10:02:47;6.72;;;5.50;;
48002;SDS011;33768;48.578;11.574;2023-06-19T10:05:57;8.73;;;6.00;;
48002;SDS011;33768;48.578;11.574;2023-06-19T10:09:06;6.10;;;5.50;;
48002;SDS011;33768;48.578;11.574;2023-06-19T10:12:12;7.68;;;5.55;;
48002;SDS011;33768;48.578;11.574;2023-06-19T10:15:17;7.10;;;5.63;;
48002;SDS011;33768;48.578;11.574;2023-06-19T10:18:22;6.40;;;5.80;;
48002;SDS011;33768;48.578;11.574;2023-06-19T10:21:28;5.75;;;5.20;;
48002;SDS011;33768;48.578;11.574;2023-06-19T10:24:51;9.57;;;5.55;;
48002;SDS011;33768;48.578;11.574;2023-06-19T10:27:55;7.03;;;5.30;;
48002;SDS011;33768;48.578;11.574;2023-06-19T10:31:01;6.68;;;4.88;;
48002;SDS011;33768;48.578;11.574;2023-06-19T10:34:06;9.40;;;5.32;;
48002;SDS011;33768;48.578;11.574;2023-06-19T10:37:10;5.90;;;4.47;;
48002;SDS011;33768;48.578;11.574;2023-06-19T10:40:14;6.32;;;4.90;;
48002;SDS011;33768;48.578;11.574;2023-06-19T10:43:22;6.10;;;5.50;;
48002;SDS011;33768;48.578;11.574;2023-06-19T10:46:29;7.40;;;5.22;;
48002;SDS011;33768;48.578;11.574;2023-06-19T10:49:34;10.95;;;9.20;;
48002;SDS011;33768;48.578;11.574;2023-06-19T10:52:39;9.48;;;6.95;;
48002;SDS011;33768;48.578;11.574;2023-06-19T10:55:44;4.63;;;4.22;;
48002;SDS011;33768;48.578;11.574;2023-06-19T10:58:56;5.30;;;4.55;;
48002;SDS011;33768;48.578;11.574;2023-06-19T11:02:10;5.10;;;4.60;;
48002;SDS011;33768;48.578;11.574;2023-06-19T11:05:14;4.88;;;4.38;;
48002;SDS011;33768;48.578;11.574;2023-06-19T11:08:19;7.53;;;4.43;;
48002;SDS011;33768;48.578;11.574;2023-06-19T11:11:23;7.88;;;4.90;;
48002;SDS011;33768;48.578;11.574;2023-06-19T11:14:48;4.75;;;4.32;;
48002;SDS011;33768;48.578;11.574;2023-06-19T11:17:52;6.53;;;3.85;;
48002;SDS011;33768;48.578;11.574;2023-06-19T11:20:56;5.50;;;4.43;;
48002;SDS011;33768;48.578;11.574;2023-06-19T11:24:01;5.63;;;3.97;;
48002;SDS011;33768;48.578;11.574;2023-06-19T11:27:05;4.82;;;4.15;;
48002;SDS011;33768;48.578;11.574;2023-06-19T11:30:14;7.80;;;4.22;;
48002;SDS011;33768;48.578;11.574;2023-06-19T11:33:21;5.32;;;4.82;;
48002;SDS011;33768;48.578;11.574;2023-06-19T11:36:26;7.18;;;4.95;;
48002;SDS011;33768;48.578;11.574;2023-06-19T11:39:30;5.95;;;4.75;;
48002;SDS011;33768;48.578;11.574;2023-06-19T11:42:43;6.35;;;4.50;;
48002;SDS011;33768;48.578;11.574;2023-06-19T11:45:48;6.68;;;4.60;;
48002;SDS011;33768;48.578;11.574;2023-06-19T11:48:52;5.30;;;4.70;;
48002;SDS011;33768;48.578;11.574;2023-06-19T11:51:57;5.20;;;4.57;;
48002;SDS011;33768;48.578;11.574;2023-06-19T11:55:01;5.32;;;4.57;;
48002;SDS011;33768;48.578;11.574;2023-06-19T11:58:05;7.80;;;5.20;;
48002;SDS011;33768;48.578;11.574;2023-06-19T12:01:09;5.22;;;4.82;;
48002;SDS011;33768;48.578;11.574;2023-06-19T12:04:14;10.02;;;4.70;;
48002;SDS011;33768;48.578;11.574;2023-06-19T12:07:18;6.22;;;4.32;;
48002;SDS011;33768;48.578;11.574;2023-06-19T12:10:23;4.78;;;4.38;;
48002;SDS011;33768;48.578;11.574;2023-06-19T12:13:26;9.68;;;4.38;;
48002;SDS011;33768;48.578;11.574;2023-06-19T12:16:31;4.78;;;4.20;;
48002;SDS011;33768;48.578;11.574;2023-06-19T12:19:35;5.30;;;4.65;;
48002;SDS011;33768;48.578;11.574;2023-06-19T12:22:39;4.75;;;4.20;;
48002;SDS011;33768;48.578;11.574;2023-06-19T12:25:44;6.25;;;4.32;;
48002;SDS011;33768;48.578;11.574;2023-06-19T12:28:48;4.78;;;4.38;;
48002;SDS011;33768;48.578;11.574;2023-06-19T12:31:52;7.35;;;3.78;;
48002;SDS011;33768;48.578;11.574;2023-06-19T12:34:56;5.90;;;4.38;;
48002;SDS011;33768;48.578;11.574;2023-06-19T12:38:00;5.13;;;4.30;;
48002;SDS011;33768;48.578;11.574;2023-06-19T12:41:04;5.32;;;4.05;;
48002;SDS011;33768;48.578;11.574;2023-06-19T12:44:08;6.35;;;3.97;;
48002;SDS011;33768;48.578;11.574;2023-06-19T12:47:12;5.85;;;3.72;;
48002;SDS011;33768;48.578;11.574;2023-06-19T12:50:17;8.02;;;3.80;;
48002;SDS011;33768;48.578;11.574;2023-06-19T12:53:21;7.05;;;3.70;;
48002;SDS011;33768;48.578;11.574;2023-06-19T12:56:30;3.97;;;3.47;;
48002;SDS011;33768;48.578;11.574;2023-06-19T12:59:33;5.95;;;3.40;;
48002;SDS011;33768;48.578;11.574;2023-06-19T13:02:38;5.50;;;3.50;;
48002;SDS011;33768;48.578;11.574;2023-06-19T13:05:43;4.13;;;3.30;;
48002;SDS011;33768;48.578;11.574;2023-06-19T13:08:47;3.90;;;3.50;;
48002;SDS011;33768;48.578;11.574;2023-06-19T13:11:50;3.60;;;3.30;;
48002;SDS011;33768;48.578;11.574;2023-06-19T13:14:54;21.30;;;4.05;;
48002;SDS011;33768;48.578;11.574;2023-06-19T13:17:58;5.00;;;3.33;;
48002;SDS011;33768;48.578;11.574;2023-06-19T13:21:02;3.35;;;3.05;;
48002;SDS011;33768;48.578;11.574;2023-06-19T13:24:07;5.00;;;3.00;;
48002;SDS011;33768;48.578;11.574;2023-06-19T13:27:11;3.95;;;2.72;;
48002;SDS011;33768;48.578;11.574;2023-06-19T13:30:15;7.97;;;3.13;;
48002;SDS011;33768;48.578;11.574;2023-06-19T13:33:20;3.90;;;3.13;;
48002;SDS011;33768;48.578;11.574;2023-06-19T13:36:24;5.80;;;2.50;;
48002;SDS011;33768;48.578;11.574;2023-06-19T13:39:30;7.60;;;2.90;;
48002;SDS011;33768;48.578;11.574;2023-06-19T13:42:34;3.15;;;2.20;;
48002;SDS011;33768;48.578;11.574;2023-06-19T13:45:42;2.95;;;2.40;;
48002;SDS011;33768;48.578;11.574;2023-06-19T13:48:47;2.40;;;2.20;;
48002;SDS011;33768;48.578;11.574;2023-06-19T13:51:54;3.08;;;2.30;;
48002;SDS011;33768;48.578;11.574;2023-06-19T13:54:58;2.65;;;2.42;;
48002;SDS011;33768;48.578;11.574;2023-06-19T13:58:02;3.15;;;2.10;;
48002;SDS011;33768;48.578;11.574;2023-06-19T14:01:06;4.15;;;2.42;;
48002;SDS011;33768;48.578;11.574;2023-06-19T14:04:10;2.45;;;2.25;;
48002;SDS011;33768;48.578;11.574;2023-06-19T14:07:15;2.78;;;2.53;;
48002;SDS011;33768;48.578;11.574;2023-06-19T14:10:20;2.92;;;2.33;;
48002;SDS011;33768;48.578;11.574;2023-06-19T14:13:24;3.63;;;2.40;;
48002;SDS011;33768;48.578;11.574;2023-06-19T14:16:29;2.33;;;2.13;;
48002;SDS011;33768;48.578;11.574;2023-06-19T14:19:33;3.85;;;2.45;;
48002;SDS011;33768;48.578;11.574;2023-06-19T14:22:37;4.45;;;2.28;;
48002;SDS011;33768;48.578;11.574;2023-06-19T14:25:41;2.50;;;2.30;;
48002;SDS011;33768;48.578;11.574;2023-06-19T14:28:45;5.32;;;2.40;;
48002;SDS011;33768;48.578;11.574;2023-06-19T14:31:52;2.58;;;2.10;;
48002;SDS011;33768;48.578;11.574;2023-06-19T14:34:56;4.35;;;2.15;;
48002;SDS011;33768;48.578;11.574;2023-06-19T14:38:00;5.22;;;2.38;;
48002;SDS011;33768;48.578;11.574;2023-06-19T14:41:04;5.82;;;2.50;;
48002;SDS011;33768;48.578;11.574;2023-06-19T14:44:09;2.95;;;2.40;;
48002;SDS011;33768;48.578;11.574;2023-06-19T14:47:13;5.45;;;2.80;;
48002;SDS011;33768;48.578;11.574;2023-06-19T14:50:17;3.63;;;2.40;;
48002;SDS011;33768;48.578;11.574;2023-06-19T14:53:21;4.10;;;2.50;;
48002;SDS011;33768;48.578;11.574;2023-06-19T14:56:25;6.18;;;2.25;;
48002;SDS011;33768;48.578;11.574;2023-06-19T14:59:30;2.50;;;2.30;;
48002;SDS011;33768;48.578;11.574;2023-06-19T15:02:34;3.25;;;3.00;;
48002;SDS011;33768;48.578;11.574;2023-06-19T15:05:38;4.10;;;2.38;;
48002;SDS011;33768;48.578;11.574;2023-06-19T15:08:42;3.13;;;2.55;;
48002;SDS011;33768;48.578;11.574;2023-06-19T15:11:47;5.55;;;2.50;;
48002;SDS011;33768;48.578;11.574;2023-06-19T15:14:51;2.90;;;2.47;;
48002;SDS011;33768;48.578;11.574;2023-06-19T15:17:56;2.70;;;2.50;;
48002;SDS011;33768;48.578;11.574;2023-06-19T15:21:01;3.83;;;2.80;;
48002;SDS011;33768;48.578;11.574;2023-06-19T15:24:05;5.40;;;2.60;;
48002;SDS011;33768;48.578;11.574;2023-06-19T15:27:10;3.25;;;3.00;;
48002;SDS011;33768;48.578;11.574;2023-06-19T15:30:15;2.97;;;2.67;;
48002;SDS011;33768;48.578;11.574;2023-06-19T15:33:19;7.40;;;3.28;;
48002;SDS011;33768;48.578;11.574;2023-06-19T15:36:25;4.68;;;2.60;;
48002;SDS011;33768;48.578;11.574;2023-06-19T15:39:29;2.92;;;2.72;;
48002;SDS011;33768;48.578;11.574;2023-06-19T15:42:33;2.72;;;2.53;;
48002;SDS011;33768;48.578;11.574;2023-06-19T15:45:38;5.55;;;3.15;;
48002;SDS011;33768;48.578;11.574;2023-06-19T15:48:42;2.90;;;2.70;;
48002;SDS011;33768;48.578;11.574;2023-06-19T15:51:47;2.85;;;2.65;;
48002;SDS011;33768;48.578;11.574;2023-06-19T15:54:51;4.68;;;2.80;;
48002;SDS011;33768;48.578;11.574;2023-06-19T15:57:55;3.70;;;2.83;;
48002;SDS011;33768;48.578;11.574;2023-06-19T16:00:59;4.50;;;2.80;;
48002;SDS011;33768;48.578;11.574;2023-06-19T16:04:03;8.18;;;3.58;;
48002;SDS011;33768;48.578;11.574;2023-06-19T16:07:08;3.88;;;2.65;;
48002;SDS011;33768;48.578;11.574;2023-06-19T16:10:12;3.72;;;2.63;;
48002;SDS011;33768;48.578;11.574;2023-06-19T16:13:18;3.10;;;2.80;;
48002;SDS011;33768;48.578;11.574;2023-06-19T16:16:21;2.90;;;2.63;;
48002;SDS011;33768;48.578;11.574;2023-06-19T16:19:26;3.42;;;2.90;;
48002;SDS011;33768;48.578;11.574;2023-06-19T16:22:30;4.00;;;3.00;;
48002;SDS011;33768;48.578;11.574;2023-06-19T16:25:34;3.97;;;3.10;;
48002;SDS011;33768;48.578;11.574;2023-06-19T16:28:38;3.30;;;3.00;;
48002;SDS011;33768;48.578;11.574;2023-06-19T16:31:42;3.05;;;2.75;;
48002;SDS011;33768;48.578;11.574;2023-06-19T16:34:46;3.33;;;3.03;;
48002;SDS011;33768;48.578;11.574;2023-06-19T16:37:51;4.13;;;2.88;;
48002;SDS011;33768;48.578;11.574;2023-06-19T16:40:59;6.07;;;3.53;;
48002;SDS011;33768;48.578;11.574;2023-06-19T16:44:04;8.75;;;3.67;;
48002;SDS011;33768;48.578;11.574;2023-06-19T16:47:08;3.10;;;2.80;;
48002;SDS011;33768;48.578;11.574;2023-06-19T16:50:12;6.53;;;3.13;;
48002;SDS011;33768;48.578;11.574;2023-06-19T16:53:16;7.68;;;3.05;;
48002;SDS011;33768;48.578;11.574;2023-06-19T16:56:21;5.32;;;3.38;;
48002;SDS011;33768;48.578;11.574;2023-06-19T16:59:25;5.63;;;3.03;;
48002;SDS011;33768;48.578;11.574;2023-06-19T17:02:29;4.25;;;3.20;;
48002;SDS011;33768;48.578;11.574;2023-06-19T17:05:34;3.28;;;2.95;;
48002;SDS011;33768;48.578;11.574;2023-06-19T17:08:38;4.30;;;3.25;;
48002;SDS011;33768;48.578;11.574;2023-06-19T17:11:42;3.83;;;3.42;;
48002;SDS011;33768;48.578;11.574;2023-06-19T17:14:47;4.78;;;3.42;;
48002;SDS011;33768;48.578;11.574;2023-06-19T17:17:51;5.25;;;3.50;;
48002;SDS011;33768;48.578;11.574;2023-06-19T17:20:55;3.80;;;3.50;;
48002;SDS011;33768;48.578;11.574;2023-06-19T17:23:59;6.75;;;3.40;;
48002;SDS011;33768;48.578;11.574;2023-06-19T17:27:04;6.00;;;3.10;;
48002;SDS011;33768;48.578;11.574;2023-06-19T17:30:08;4.72;;;3.78;;
48002;SDS011;33768;48.578;11.574;2023-06-19T17:33:14;8.20;;;3.85;;
48002;SDS011;33768;48.578;11.574;2023-06-19T17:36:18;6.75;;;3.35;;
48002;SDS011;33768;48.578;11.574;2023-06-19T17:39:22;6.50;;;4.10;;
48002;SDS011;33768;48.578;11.574;2023-06-19T17:42:26;5.82;;;4.88;;
48002;SDS011;33768;48.578;11.574;2023-06-19T17:45:30;7.47;;;5.90;;
48002;SDS011;33768;48.578;11.574;2023-06-19T17:48:34;7.35;;;5.68;;
48002;SDS011;33768;48.578;11.574;2023-06-19T17:51:38;12.73;;;5.40;;
48002;SDS011;33768;48.578;11.574;2023-06-19T17:54:43;9.45;;;5.88;;
48002;SDS011;33768;48.578;11.574;2023-06-19T17:57:54;7.45;;;5.95;;
48002;SDS011;33768;48.578;11.574;2023-06-19T18:00:58;6.93;;;5.65;;
48002;SDS011;33768;48.578;11.574;2023-06-19T18:04:02;9.27;;;5.75;;
48002;SDS011;33768;48.578;11.574;2023-06-19T18:07:06;8.27;;;6.40;;
48002;SDS011;33768;48.578;11.574;2023-06-19T18:10:10;7.97;;;6.18;;
48002;SDS011;33768;48.578;11.574;2023-06-19T18:13:14;12.27;;;6.20;;
48002;SDS011;33768;48.578;11.574;2023-06-19T18:16:18;6.40;;;5.82;;